sensor_id;sensor_type;location;lat;lon;timestamp;temperature;humidity
67093;SHT31;54011;50.772;7.730;2022-12-18T00:01:39;-8.96;90.95
67093;SHT31;54011;50.772;7.730;2022-12-18T00:04:22;-8.83;91.15
67093;SHT31;54011;50.772;7.730;2022-12-18T00:06:53;-8.69;91.18
67093;SHT31;54011;50.772;7.730;2022-12-18T00:09:19;-8.62;90.89
67093;SHT31;54011;50.772;7.730;2022-12-18T00:11:45;-8.60;90.15
67093;SHT31;54011;50.772;7.730;2022-12-18T00:14:12;-8.60;89.60
67093;SHT31;54011;50.772;7.730;2022-12-18T00:16:39;-8.99;86.84
67093;SHT31;54011;50.772;7.730;2022-12-18T00:19:05;-9.17;87.36
67093;SHT31;54011;50.772;7.730;2022-12-18T00:21:31;-9.06;90.57
67093;SHT31;54011;50.772;7.730;2022-12-18T00:23:58;-8.92;90.91
67093;SHT31;54011;50.772;7.730;2022-12-18T00:26:32;-8.73;91.06
67093;SHT31;54011;50.772;7.730;2022-12-18T00:29:07;-8.56;90.33
67093;SHT31;54011;50.772;7.730;2022-12-18T00:31:33;-8.52;90.19
67093;SHT31;54011;50.772;7.730;2022-12-18T00:34:00;-8.55;89.77
67093;SHT31;54011;50.772;7.730;2022-12-18T00:36:32;-8.51;89.89
67093;SHT31;54011;50.772;7.730;2022-12-18T00:38:59;-8.49;90.00
67093;SHT31;54011;50.772;7.730;2022-12-18T00:41:27;-8.48;90.11
67093;SHT31;54011;50.772;7.730;2022-12-18T00:44:13;-8.53;90.36
67093;SHT31;54011;50.772;7.730;2022-12-18T00:46:40;-8.58;90.43
67093;SHT31;54011;50.772;7.730;2022-12-18T00:49:06;-8.60;89.98
67093;SHT31;54011;50.772;7.730;2022-12-18T00:51:33;-8.63;89.38
67093;SHT31;54011;50.772;7.730;2022-12-18T00:53:59;-8.69;89.29
67093;SHT31;54011;50.772;7.730;2022-12-18T00:56:25;-8.79;89.82
67093;SHT31;54011;50.772;7.730;2022-12-18T00:58:52;-8.82;89.77
67093;SHT31;54011;50.772;7.730;2022-12-18T01:01:17;-8.80;90.02
67093;SHT31;54011;50.772;7.730;2022-12-18T01:03:43;-8.80;89.67
67093;SHT31;54011;50.772;7.730;2022-12-18T01:06:12;-8.80;89.68
67093;SHT31;54011;50.772;7.730;2022-12-18T01:08:38;-8.76;89.45
67093;SHT31;54011;50.772;7.730;2022-12-18T01:11:17;-8.83;88.78
67093;SHT31;54011;50.772;7.730;2022-12-18T01:13:43;-8.92;89.33
67093;SHT31;54011;50.772;7.730;2022-12-18T01:16:17;-8.85;90.12
67093;SHT31;54011;50.772;7.730;2022-12-18T01:18:45;-8.76;90.49
67093;SHT31;54011;50.772;7.730;2022-12-18T01:22:11;-8.79;89.53
67093;SHT31;54011;50.772;7.730;2022-12-18T01:24:48;-8.83;89.40
67093;SHT31;54011;50.772;7.730;2022-12-18T01:43:54;-8.73;89.58
67093;SHT31;54011;50.772;7.730;2022-12-18T01:49:14;-8.88;89.08
67093;SHT31;54011;50.772;7.730;2022-12-18T01:51:40;-8.97;89.72
67093;SHT31;54011;50.772;7.730;2022-12-18T01:54:08;-9.00;89.74
67093;SHT31;54011;50.772;7.730;2022-12-18T01:56:34;-8.99;89.50
67093;SHT31;54011;50.772;7.730;2022-12-18T01:59:05;-9.04;88.68
67093;SHT31;54011;50.772;7.730;2022-12-18T02:01:32;-9.52;83.91
67093;SHT31;54011;50.772;7.730;2022-12-18T02:04:26;-9.59;89.14
67093;SHT31;54011;50.772;7.730;2022-12-18T02:07:03;-9.45;90.45
67093;SHT31;54011;50.772;7.730;2022-12-18T02:09:35;-9.32;90.80
67093;SHT31;54011;50.772;7.730;2022-12-18T02:12:15;-9.13;91.26
67093;SHT31;54011;50.772;7.730;2022-12-18T02:17:30;-8.92;90.82
67093;SHT31;54011;50.772;7.730;2022-12-18T02:20:02;-8.78;90.56
67093;SHT31;54011;50.772;7.730;2022-12-18T02:22:42;-8.78;90.06
67093;SHT31;54011;50.772;7.730;2022-12-18T02:27:35;-8.75;89.69
67093;SHT31;54011;50.772;7.730;2022-12-18T02:30:04;-8.79;89.82
67093;SHT31;54011;50.772;7.730;2022-12-18T02:32:42;-8.88;90.09
67093;SHT31;54011;50.772;7.730;2022-12-18T02:35:12;-8.90;89.81
67093;SHT31;54011;50.772;7.730;2022-12-18T02:37:43;-8.93;90.13
67093;SHT31;54011;50.772;7.730;2022-12-18T02:40:11;-8.95;90.07
67093;SHT31;54011;50.772;7.730;2022-12-18T02:42:40;-8.92;89.79
67093;SHT31;54011;50.772;7.730;2022-12-18T02:45:08;-8.99;89.76
67093;SHT31;54011;50.772;7.730;2022-12-18T02:47:38;-9.03;89.02
67093;SHT31;54011;50.772;7.730;2022-12-18T02:50:35;-9.03;89.44
67093;SHT31;54011;50.772;7.730;2022-12-18T02:53:24;-9.11;89.60
67093;SHT31;54011;50.772;7.730;2022-12-18T02:55:59;-9.07;89.97
67093;SHT31;54011;50.772;7.730;2022-12-18T03:04:30;-9.31;87.27
67093;SHT31;54011;50.772;7.730;2022-12-18T03:06:57;-9.63;85.35
67093;SHT31;54011;50.772;7.730;2022-12-18T03:09:38;-9.86;85.40
67093;SHT31;54011;50.772;7.730;2022-12-18T03:12:37;-9.89;86.18
67093;SHT31;54011;50.772;7.730;2022-12-18T03:15:35;-9.93;87.45
67093;SHT31;54011;50.772;7.730;2022-12-18T03:18:20;-10.09;86.53
67093;SHT31;54011;50.772;7.730;2022-12-18T03:20:55;-10.02;87.60
67093;SHT31;54011;50.772;7.730;2022-12-18T03:23:29;-9.88;88.55
67093;SHT31;54011;50.772;7.730;2022-12-18T03:26:02;-9.89;87.51
67093;SHT31;54011;50.772;7.730;2022-12-18T03:28:32;-10.00;85.89
67093;SHT31;54011;50.772;7.730;2022-12-18T03:31:03;-10.27;86.10
67093;SHT31;54011;50.772;7.730;2022-12-18T03:33:37;-10.34;86.53
67093;SHT31;54011;50.772;7.730;2022-12-18T03:36:04;-10.21;87.83
67093;SHT31;54011;50.772;7.730;2022-12-18T03:38:35;-10.05;88.54
67093;SHT31;54011;50.772;7.730;2022-12-18T03:44:20;-9.90;88.27
67093;SHT31;54011;50.772;7.730;2022-12-18T03:52:16;-9.51;90.15
67093;SHT31;54011;50.772;7.730;2022-12-18T03:54:44;-9.37;90.96
67093;SHT31;54011;50.772;7.730;2022-12-18T03:57:16;-9.31;90.23
67093;SHT31;54011;50.772;7.730;2022-12-18T03:59:44;-9.34;88.76
67093;SHT31;54011;50.772;7.730;2022-12-18T04:02:33;-9.56;87.05
67093;SHT31;54011;50.772;7.730;2022-12-18T04:05:16;-9.96;84.53
67093;SHT31;54011;50.772;7.730;2022-12-18T04:07:58;-10.34;83.40
67093;SHT31;54011;50.772;7.730;2022-12-18T04:10:30;-10.00;91.02
67093;SHT31;54011;50.772;7.730;2022-12-18T04:12:57;-9.68;91.67
67093;SHT31;54011;50.772;7.730;2022-12-18T04:15:29;-9.48;91.73
67093;SHT31;54011;50.772;7.730;2022-12-18T04:17:55;-9.44;90.55
67093;SHT31;54011;50.772;7.730;2022-12-18T04:20:35;-9.31;90.62
67093;SHT31;54011;50.772;7.730;2022-12-18T04:47:08;-9.16;90.18
67093;SHT31;54011;50.772;7.730;2022-12-18T04:57:54;-8.75;91.59
67093;SHT31;54011;50.772;7.730;2022-12-18T05:00:20;-8.65;91.14
67093;SHT31;54011;50.772;7.730;2022-12-18T05:02:47;-8.59;91.16
67093;SHT31;54011;50.772;7.730;2022-12-18T05:05:18;-8.56;90.68
67093;SHT31;54011;50.772;7.730;2022-12-18T05:07:47;-8.38;91.76
67093;SHT31;54011;50.772;7.730;2022-12-18T05:10:15;-8.35;91.09
67093;SHT31;54011;50.772;7.730;2022-12-18T05:12:45;-8.31;91.04
67093;SHT31;54011;50.772;7.730;2022-12-18T05:15:32;-8.27;90.94
67093;SHT31;54011;50.772;7.730;2022-12-18T05:18:01;-8.29;90.67
67093;SHT31;54011;50.772;7.730;2022-12-18T05:27:57;-8.25;91.37
67093;SHT31;54011;50.772;7.730;2022-12-18T05:30:59;-8.17;91.45
67093;SHT31;54011;50.772;7.730;2022-12-18T05:36:53;-8.22;90.38
67093;SHT31;54011;50.772;7.730;2022-12-18T05:39:18;-8.24;91.29
67093;SHT31;54011;50.772;7.730;2022-12-18T05:41:43;-8.29;91.16
67093;SHT31;54011;50.772;7.730;2022-12-18T05:44:10;-8.39;90.34
67093;SHT31;54011;50.772;7.730;2022-12-18T05:46:36;-8.48;90.31
67093;SHT31;54011;50.772;7.730;2022-12-18T05:49:01;-8.38;91.25
67093;SHT31;54011;50.772;7.730;2022-12-18T05:51:27;-8.29;92.11
67093;SHT31;54011;50.772;7.730;2022-12-18T05:53:52;-8.31;91.32
67093;SHT31;54011;50.772;7.730;2022-12-18T05:56:21;-8.16;91.40
67093;SHT31;54011;50.772;7.730;2022-12-18T05:58:52;-8.11;91.63
67093;SHT31;54011;50.772;7.730;2022-12-18T06:01:19;-8.14;90.37
67093;SHT31;54011;50.772;7.730;2022-12-18T06:03:45;-8.18;90.64
67093;SHT31;54011;50.772;7.730;2022-12-18T06:06:18;-8.18;91.22
67093;SHT31;54011;50.772;7.730;2022-12-18T06:08:45;-8.10;91.21
67093;SHT31;54011;50.772;7.730;2022-12-18T06:11:11;-8.16;91.32
67093;SHT31;54011;50.772;7.730;2022-12-18T06:13:37;-8.16;91.19
67093;SHT31;54011;50.772;7.730;2022-12-18T06:16:09;-8.18;90.53
67093;SHT31;54011;50.772;7.730;2022-12-18T06:18:34;-8.17;90.85
67093;SHT31;54011;50.772;7.730;2022-12-18T06:21:00;-8.17;91.25
67093;SHT31;54011;50.772;7.730;2022-12-18T06:23:26;-8.17;90.45
67093;SHT31;54011;50.772;7.730;2022-12-18T06:25:55;-8.07;91.58
67093;SHT31;54011;50.772;7.730;2022-12-18T06:28:22;-8.10;90.44
67093;SHT31;54011;50.772;7.730;2022-12-18T06:30:50;-8.13;90.56
67093;SHT31;54011;50.772;7.730;2022-12-18T06:33:16;-8.04;91.88
67093;SHT31;54011;50.772;7.730;2022-12-18T06:35:46;-7.94;91.69
67093;SHT31;54011;50.772;7.730;2022-12-18T06:38:12;-7.87;91.83
67093;SHT31;54011;50.772;7.730;2022-12-18T06:40:39;-7.82;91.76
67093;SHT31;54011;50.772;7.730;2022-12-18T06:43:11;-7.73;91.25
67093;SHT31;54011;50.772;7.730;2022-12-18T06:45:36;-7.75;90.78
67093;SHT31;54011;50.772;7.730;2022-12-18T06:48:02;-7.80;90.84
67093;SHT31;54011;50.772;7.730;2022-12-18T06:50:27;-7.82;90.82
67093;SHT31;54011;50.772;7.730;2022-12-18T06:52:54;-7.76;92.06
67093;SHT31;54011;50.772;7.730;2022-12-18T06:55:20;-7.70;91.57
67093;SHT31;54011;50.772;7.730;2022-12-18T06:57:48;-7.53;91.94
67093;SHT31;54011;50.772;7.730;2022-12-18T07:00:17;-7.60;90.79
67093;SHT31;54011;50.772;7.730;2022-12-18T07:02:42;-7.55;91.26
67093;SHT31;54011;50.772;7.730;2022-12-18T07:05:08;-7.62;91.14
67093;SHT31;54011;50.772;7.730;2022-12-18T07:07:34;-7.63;90.82
67093;SHT31;54011;50.772;7.730;2022-12-18T07:10:00;-7.60;90.84
67093;SHT31;54011;50.772;7.730;2022-12-18T07:12:27;-7.64;90.94
67093;SHT31;54011;50.772;7.730;2022-12-18T07:14:58;-7.73;90.74
67093;SHT31;54011;50.772;7.730;2022-12-18T07:17:24;-7.52;92.72
67093;SHT31;54011;50.772;7.730;2022-12-18T07:19:51;-7.56;91.24
67093;SHT31;54011;50.772;7.730;2022-12-18T07:22:17;-7.43;91.59
67093;SHT31;54011;50.772;7.730;2022-12-18T07:24:43;-7.48;90.82
67093;SHT31;54011;50.772;7.730;2022-12-18T07:27:09;-7.38;92.22
67093;SHT31;54011;50.772;7.730;2022-12-18T07:29:35;-7.31;91.91
67093;SHT31;54011;50.772;7.730;2022-12-18T07:32:02;-7.24;91.72
67093;SHT31;54011;50.772;7.730;2022-12-18T07:34:27;-7.27;90.87
67093;SHT31;54011;50.772;7.730;2022-12-18T07:36:53;-7.21;90.90
67093;SHT31;54011;50.772;7.730;2022-12-18T07:39:19;-7.24;90.62
67093;SHT31;54011;50.772;7.730;2022-12-18T07:41:44;-7.31;90.12
67093;SHT31;54011;50.772;7.730;2022-12-18T07:44:31;-7.28;91.02
67093;SHT31;54011;50.772;7.730;2022-12-18T07:46:57;-7.31;91.23
67093;SHT31;54011;50.772;7.730;2022-12-18T07:49:22;-7.27;90.85
67093;SHT31;54011;50.772;7.730;2022-12-18T07:51:48;-7.24;90.78
67093;SHT31;54011;50.772;7.730;2022-12-18T07:54:14;-7.24;90.64
67093;SHT31;54011;50.772;7.730;2022-12-18T07:56:40;-7.22;91.19
67093;SHT31;54011;50.772;7.730;2022-12-18T07:59:05;-7.29;89.61
67093;SHT31;54011;50.772;7.730;2022-12-18T08:01:33;-7.32;89.73
67093;SHT31;54011;50.772;7.730;2022-12-18T08:03:59;-7.43;88.81
67093;SHT31;54011;50.772;7.730;2022-12-18T08:06:26;-7.48;88.56
67093;SHT31;54011;50.772;7.730;2022-12-18T08:08:52;-7.49;89.31
67093;SHT31;54011;50.772;7.730;2022-12-18T08:11:18;-7.56;88.15
67093;SHT31;54011;50.772;7.730;2022-12-18T08:13:43;-7.49;89.17
67093;SHT31;54011;50.772;7.730;2022-12-18T08:16:09;-7.48;88.76
67093;SHT31;54011;50.772;7.730;2022-12-18T08:18:37;-7.48;87.76
67093;SHT31;54011;50.772;7.730;2022-12-18T08:21:23;-7.73;87.40
67093;SHT31;54011;50.772;7.730;2022-12-18T08:23:50;-7.69;90.12
67093;SHT31;54011;50.772;7.730;2022-12-18T08:26:15;-7.59;89.55
67093;SHT31;54011;50.772;7.730;2022-12-18T08:28:42;-7.15;91.27
67093;SHT31;54011;50.772;7.730;2022-12-18T08:31:08;-6.91;91.10
67093;SHT31;54011;50.772;7.730;2022-12-18T08:33:35;-6.70;90.16
67093;SHT31;54011;50.772;7.730;2022-12-18T08:36:01;-6.57;90.18
67093;SHT31;54011;50.772;7.730;2022-12-18T08:38:27;-6.36;90.68
67093;SHT31;54011;50.772;7.730;2022-12-18T08:41:07;-6.19;90.32
67093;SHT31;54011;50.772;7.730;2022-12-18T08:43:33;-6.06;90.10
67093;SHT31;54011;50.772;7.730;2022-12-18T08:46:18;-5.94;89.63
67093;SHT31;54011;50.772;7.730;2022-12-18T08:48:44;-5.85;89.31
67093;SHT31;54011;50.772;7.730;2022-12-18T08:51:10;-5.85;88.96
67093;SHT31;54011;50.772;7.730;2022-12-18T08:53:36;-5.73;88.80
67093;SHT31;54011;50.772;7.730;2022-12-18T08:56:03;-5.52;88.49
67093;SHT31;54011;50.772;7.730;2022-12-18T08:58:29;-4.89;86.76
67093;SHT31;54011;50.772;7.730;2022-12-18T09:01:06;-4.57;85.41
67093;SHT31;54011;50.772;7.730;2022-12-18T09:03:32;-4.36;85.29
67093;SHT31;54011;50.772;7.730;2022-12-18T09:05:58;-4.07;84.43
67093;SHT31;54011;50.772;7.730;2022-12-18T09:08:24;-4.01;83.93
67093;SHT31;54011;50.772;7.730;2022-12-18T09:10:50;-3.89;84.30
67093;SHT31;54011;50.772;7.730;2022-12-18T09:13:16;-3.95;83.92
67093;SHT31;54011;50.772;7.730;2022-12-18T09:15:45;-3.99;85.46
67093;SHT31;54011;50.772;7.730;2022-12-18T09:18:11;-3.86;85.18
67093;SHT31;54011;50.772;7.730;2022-12-18T09:20:37;-3.58;83.99
67093;SHT31;54011;50.772;7.730;2022-12-18T09:23:04;-3.04;83.19
67093;SHT31;54011;50.772;7.730;2022-12-18T09:25:30;-2.72;81.72
67093;SHT31;54011;50.772;7.730;2022-12-18T09:28:03;-2.45;80.98
67093;SHT31;54011;50.772;7.730;2022-12-18T09:30:28;-2.58;80.99
67093;SHT31;54011;50.772;7.730;2022-12-18T09:32:54;-2.57;82.22
67093;SHT31;54011;50.772;7.730;2022-12-18T09:35:20;-2.93;82.26
67093;SHT31;54011;50.772;7.730;2022-12-18T09:37:45;-3.04;83.41
67093;SHT31;54011;50.772;7.730;2022-12-18T09:40:16;-3.06;83.05
67093;SHT31;54011;50.772;7.730;2022-12-18T09:42:46;-2.99;82.81
67093;SHT31;54011;50.772;7.730;2022-12-18T09:45:14;-2.68;82.98
67093;SHT31;54011;50.772;7.730;2022-12-18T09:47:42;-2.36;82.10
67093;SHT31;54011;50.772;7.730;2022-12-18T09:50:28;-1.59;79.24
67093;SHT31;54011;50.772;7.730;2022-12-18T09:52:58;-1.70;78.17
67093;SHT31;54011;50.772;7.730;2022-12-18T09:55:35;-1.66;78.76
67093;SHT31;54011;50.772;7.730;2022-12-18T09:58:07;-1.60;78.63
67093;SHT31;54011;50.772;7.730;2022-12-18T10:00:37;-1.37;78.51
67093;SHT31;54011;50.772;7.730;2022-12-18T10:03:09;-1.01;79.01
67093;SHT31;54011;50.772;7.730;2022-12-18T10:06:12;-1.10;77.62
67093;SHT31;54011;50.772;7.730;2022-12-18T10:09:09;-1.60;79.84
67093;SHT31;54011;50.772;7.730;2022-12-18T10:17:07;-1.15;79.32
67093;SHT31;54011;50.772;7.730;2022-12-18T10:19:41;-1.08;80.19
67093;SHT31;54011;50.772;7.730;2022-12-18T10:25:22;-1.05;79.98
67093;SHT31;54011;50.772;7.730;2022-12-18T10:27:52;-0.90;79.31
67093;SHT31;54011;50.772;7.730;2022-12-18T10:30:22;-1.05;81.24
67093;SHT31;54011;50.772;7.730;2022-12-18T10:32:51;-0.63;79.71
67093;SHT31;54011;50.772;7.730;2022-12-18T10:35:23;-0.42;78.96
67093;SHT31;54011;50.772;7.730;2022-12-18T10:40:57;-0.30;77.80
67093;SHT31;54011;50.772;7.730;2022-12-18T10:43:29;-0.63;77.98
67093;SHT31;54011;50.772;7.730;2022-12-18T10:48:56;-0.67;79.95
67093;SHT31;54011;50.772;7.730;2022-12-18T10:51:25;-0.46;79.15
67093;SHT31;54011;50.772;7.730;2022-12-18T10:54:01;-0.38;79.78
67093;SHT31;54011;50.772;7.730;2022-12-18T10:56:28;-0.35;79.19
67093;SHT31;54011;50.772;7.730;2022-12-18T10:59:00;0.14;78.93
67093;SHT31;54011;50.772;7.730;2022-12-18T11:01:26;0.16;77.31
67093;SHT31;54011;50.772;7.730;2022-12-18T11:03:59;-0.08;78.13
67093;SHT31;54011;50.772;7.730;2022-12-18T11:06:59;0.27;76.91
67093;SHT31;54011;50.772;7.730;2022-12-18T11:09:36;0.41;78.94
67093;SHT31;54011;50.772;7.730;2022-12-18T11:14:43;0.77;77.35
67093;SHT31;54011;50.772;7.730;2022-12-18T11:17:32;1.15;77.96
67093;SHT31;54011;50.772;7.730;2022-12-18T11:22:28;0.94;76.20
67093;SHT31;54011;50.772;7.730;2022-12-18T11:27:20;0.77;76.57
67093;SHT31;54011;50.772;7.730;2022-12-18T11:29:50;0.92;76.73
67093;SHT31;54011;50.772;7.730;2022-12-18T11:32:38;0.77;76.64
67093;SHT31;54011;50.772;7.730;2022-12-18T11:35:14;0.94;77.43
67093;SHT31;54011;50.772;7.730;2022-12-18T11:37:43;0.94;76.83
67093;SHT31;54011;50.772;7.730;2022-12-18T11:40:20;0.67;76.41
67093;SHT31;54011;50.772;7.730;2022-12-18T11:45:59;0.89;74.88
67093;SHT31;54011;50.772;7.730;2022-12-18T11:48:36;0.87;72.57
67093;SHT31;54011;50.772;7.730;2022-12-18T11:51:05;0.89;72.12
67093;SHT31;54011;50.772;7.730;2022-12-18T11:53:36;0.77;71.51
67093;SHT31;54011;50.772;7.730;2022-12-18T11:56:26;0.82;71.76
67093;SHT31;54011;50.772;7.730;2022-12-18T12:01:40;1.03;71.13
67093;SHT31;54011;50.772;7.730;2022-12-18T12:10:39;0.91;71.53
67093;SHT31;54011;50.772;7.730;2022-12-18T12:13:33;0.57;72.35
67093;SHT31;54011;50.772;7.730;2022-12-18T12:16:33;0.41;72.54
67093;SHT31;54011;50.772;7.730;2022-12-18T12:22:42;0.20;72.58
67093;SHT31;54011;50.772;7.730;2022-12-18T12:27:42;0.16;72.37
67093;SHT31;54011;50.772;7.730;2022-12-18T12:30:30;0.01;72.59
67093;SHT31;54011;50.772;7.730;2022-12-18T12:35:44;-0.30;73.35
67093;SHT31;54011;50.772;7.730;2022-12-18T12:43:44;-0.35;72.53
67093;SHT31;54011;50.772;7.730;2022-12-18T12:46:18;-0.36;73.12
67093;SHT31;54011;50.772;7.730;2022-12-18T12:49:34;-0.45;75.25
67093;SHT31;54011;50.772;7.730;2022-12-18T12:51:46;-0.50;74.46
67093;SHT31;54011;50.772;7.730;2022-12-18T12:54:46;-0.52;75.04
67093;SHT31;54011;50.772;7.730;2022-12-18T12:57:22;-0.46;74.29
67093;SHT31;54011;50.772;7.730;2022-12-18T12:59:52;-0.65;75.10
67093;SHT31;54011;50.772;7.730;2022-12-18T13:07:42;-0.80;74.84
67093;SHT31;54011;50.772;7.730;2022-12-18T13:10:35;-0.93;74.75
67093;SHT31;54011;50.772;7.730;2022-12-18T13:13:12;-0.90;74.88
67093;SHT31;54011;50.772;7.730;2022-12-18T13:16:04;-0.91;75.02
67093;SHT31;54011;50.772;7.730;2022-12-18T13:18:30;-1.04;74.96
67093;SHT31;54011;50.772;7.730;2022-12-18T13:25:54;-0.90;75.78
67093;SHT31;54011;50.772;7.730;2022-12-18T13:31:08;-1.00;75.36
67093;SHT31;54011;50.772;7.730;2022-12-18T13:33:44;-0.97;75.33
67093;SHT31;54011;50.772;7.730;2022-12-18T13:39:09;-1.00;75.46
67093;SHT31;54011;50.772;7.730;2022-12-18T13:41:35;-0.97;76.04
67093;SHT31;54011;50.772;7.730;2022-12-18T13:44:38;-1.07;76.46
67093;SHT31;54011;50.772;7.730;2022-12-18T13:47:26;-1.10;76.15
67093;SHT31;54011;50.772;7.730;2022-12-18T13:49:52;-1.28;76.37
67093;SHT31;54011;50.772;7.730;2022-12-18T13:52:33;-1.24;76.67
67093;SHT31;54011;50.772;7.730;2022-12-18T13:55:01;-1.20;76.24
67093;SHT31;54011;50.772;7.730;2022-12-18T13:59:58;-1.24;75.98
67093;SHT31;54011;50.772;7.730;2022-12-18T14:02:26;-1.28;76.02
67093;SHT31;54011;50.772;7.730;2022-12-18T14:04:53;-1.17;76.59
67093;SHT31;54011;50.772;7.730;2022-12-18T14:07:22;-1.15;76.47
67093;SHT31;54011;50.772;7.730;2022-12-18T14:09:51;-1.31;76.80
67093;SHT31;54011;50.772;7.730;2022-12-18T14:17:59;-1.30;75.84
67093;SHT31;54011;50.772;7.730;2022-12-18T14:20:27;-1.47;75.86
67093;SHT31;54011;50.772;7.730;2022-12-18T14:22:54;-1.47;75.55
67093;SHT31;54011;50.772;7.730;2022-12-18T14:25:25;-1.39;75.44
67093;SHT31;54011;50.772;7.730;2022-12-18T14:30:41;-1.28;75.43
67093;SHT31;54011;50.772;7.730;2022-12-18T14:33:15;-1.34;74.98
67093;SHT31;54011;50.772;7.730;2022-12-18T14:36:02;-1.41;74.61
67093;SHT31;54011;50.772;7.730;2022-12-18T14:38:35;-1.59;75.39
67093;SHT31;54011;50.772;7.730;2022-12-18T14:41:03;-1.56;75.58
67093;SHT31;54011;50.772;7.730;2022-12-18T14:43:37;-1.66;75.58
67093;SHT31;54011;50.772;7.730;2022-12-18T14:46:37;-1.68;75.57
67093;SHT31;54011;50.772;7.730;2022-12-18T14:51:56;-1.85;76.04
67093;SHT31;54011;50.772;7.730;2022-12-18T14:54:25;-1.86;75.90
67093;SHT31;54011;50.772;7.730;2022-12-18T14:57:32;-1.86;76.26
67093;SHT31;54011;50.772;7.730;2022-12-18T15:00:07;-1.87;75.83
67093;SHT31;54011;50.772;7.730;2022-12-18T15:02:40;-1.87;76.06
67093;SHT31;54011;50.772;7.730;2022-12-18T15:07:46;-1.94;76.09
67093;SHT31;54011;50.772;7.730;2022-12-18T15:10:18;-2.00;77.35
67093;SHT31;54011;50.772;7.730;2022-12-18T15:12:49;-2.07;76.73
67093;SHT31;54011;50.772;7.730;2022-12-18T15:23:48;-2.04;77.30
67093;SHT31;54011;50.772;7.730;2022-12-18T15:32:47;-2.11;78.30
67093;SHT31;54011;50.772;7.730;2022-12-18T15:35:20;-2.03;78.05
67093;SHT31;54011;50.772;7.730;2022-12-18T15:37:47;-2.04;78.51
67093;SHT31;54011;50.772;7.730;2022-12-18T15:42:41;-2.03;79.07
67093;SHT31;54011;50.772;7.730;2022-12-18T15:45:26;-2.11;78.61
67093;SHT31;54011;50.772;7.730;2022-12-18T15:47:52;-2.04;78.87
67093;SHT31;54011;50.772;7.730;2022-12-18T15:50:17;-2.07;78.92
67093;SHT31;54011;50.772;7.730;2022-12-18T15:52:47;-2.09;78.78
67093;SHT31;54011;50.772;7.730;2022-12-18T15:55:23;-2.01;79.18
67093;SHT31;54011;50.772;7.730;2022-12-18T15:58:09;-2.06;78.92
67093;SHT31;54011;50.772;7.730;2022-12-18T16:00:39;-2.01;78.68
67093;SHT31;54011;50.772;7.730;2022-12-18T16:03:05;-1.99;79.11
67093;SHT31;54011;50.772;7.730;2022-12-18T16:05:32;-2.10;78.57
67093;SHT31;54011;50.772;7.730;2022-12-18T16:07:57;-2.11;78.96
67093;SHT31;54011;50.772;7.730;2022-12-18T16:10:25;-2.17;79.05
67093;SHT31;54011;50.772;7.730;2022-12-18T16:12:51;-2.15;78.31
67093;SHT31;54011;50.772;7.730;2022-12-18T16:15:17;-2.14;78.78
67093;SHT31;54011;50.772;7.730;2022-12-18T16:17:43;-2.17;78.51
67093;SHT31;54011;50.772;7.730;2022-12-18T16:20:14;-2.20;78.52
67093;SHT31;54011;50.772;7.730;2022-12-18T16:22:41;-2.23;78.60
67093;SHT31;54011;50.772;7.730;2022-12-18T16:25:16;-2.26;78.57
67093;SHT31;54011;50.772;7.730;2022-12-18T16:27:42;-2.27;78.49
67093;SHT31;54011;50.772;7.730;2022-12-18T16:30:13;-2.26;78.43
67093;SHT31;54011;50.772;7.730;2022-12-18T16:32:38;-2.34;78.86
67093;SHT31;54011;50.772;7.730;2022-12-18T16:35:04;-2.37;79.11
67093;SHT31;54011;50.772;7.730;2022-12-18T16:37:29;-2.31;78.93
67093;SHT31;54011;50.772;7.730;2022-12-18T16:39:55;-2.36;79.11
67093;SHT31;54011;50.772;7.730;2022-12-18T16:42:20;-2.36;78.93
67093;SHT31;54011;50.772;7.730;2022-12-18T16:44:47;-2.34;79.02
67093;SHT31;54011;50.772;7.730;2022-12-18T16:47:14;-2.44;79.32
67093;SHT31;54011;50.772;7.730;2022-12-18T16:49:39;-2.47;79.70
67093;SHT31;54011;50.772;7.730;2022-12-18T16:52:06;-2.44;79.28
67093;SHT31;54011;50.772;7.730;2022-12-18T16:54:32;-2.41;79.50
67093;SHT31;54011;50.772;7.730;2022-12-18T16:56:59;-2.48;79.53
67093;SHT31;54011;50.772;7.730;2022-12-18T16:59:25;-2.42;79.61
67093;SHT31;54011;50.772;7.730;2022-12-18T17:01:51;-2.40;79.59
67093;SHT31;54011;50.772;7.730;2022-12-18T17:04:17;-2.45;79.83
67093;SHT31;54011;50.772;7.730;2022-12-18T17:06:44;-2.47;79.74
67093;SHT31;54011;50.772;7.730;2022-12-18T17:09:14;-2.50;80.27
67093;SHT31;54011;50.772;7.730;2022-12-18T17:11:42;-2.54;80.24
67093;SHT31;54011;50.772;7.730;2022-12-18T17:14:11;-2.54;80.25
67093;SHT31;54011;50.772;7.730;2022-12-18T17:16:37;-2.54;80.31
67093;SHT31;54011;50.772;7.730;2022-12-18T17:19:03;-2.59;80.57
67093;SHT31;54011;50.772;7.730;2022-12-18T17:21:31;-2.66;80.44
67093;SHT31;54011;50.772;7.730;2022-12-18T17:24:01;-2.62;80.43
67093;SHT31;54011;50.772;7.730;2022-12-18T17:26:27;-2.72;80.75
67093;SHT31;54011;50.772;7.730;2022-12-18T17:28:55;-2.72;80.70
67093;SHT31;54011;50.772;7.730;2022-12-18T17:31:23;-2.76;80.66
67093;SHT31;54011;50.772;7.730;2022-12-18T17:33:53;-2.76;80.83
67093;SHT31;54011;50.772;7.730;2022-12-18T17:36:20;-2.78;80.97
67093;SHT31;54011;50.772;7.730;2022-12-18T17:38:54;-2.79;81.18
67093;SHT31;54011;50.772;7.730;2022-12-18T17:41:20;-2.82;81.71
67093;SHT31;54011;50.772;7.730;2022-12-18T17:43:57;-2.88;81.67
67093;SHT31;54011;50.772;7.730;2022-12-18T17:46:24;-2.82;81.60
67093;SHT31;54011;50.772;7.730;2022-12-18T17:48:51;-2.78;81.71
67093;SHT31;54011;50.772;7.730;2022-12-18T17:51:17;-2.81;81.69
67093;SHT31;54011;50.772;7.730;2022-12-18T17:53:42;-2.71;81.81
67093;SHT31;54011;50.772;7.730;2022-12-18T17:56:11;-2.75;81.91
67093;SHT31;54011;50.772;7.730;2022-12-18T17:58:36;-2.71;82.07
67093;SHT31;54011;50.772;7.730;2022-12-18T18:01:03;-2.68;82.03
67093;SHT31;54011;50.772;7.730;2022-12-18T18:03:32;-2.66;82.19
67093;SHT31;54011;50.772;7.730;2022-12-18T18:06:00;-2.62;82.09
67093;SHT31;54011;50.772;7.730;2022-12-18T18:17:45;-2.66;82.11
67093;SHT31;54011;50.772;7.730;2022-12-18T18:20:14;-2.61;82.02
67093;SHT31;54011;50.772;7.730;2022-12-18T18:22:41;-2.59;81.45
67093;SHT31;54011;50.772;7.730;2022-12-18T18:25:08;-2.58;81.61
67093;SHT31;54011;50.772;7.730;2022-12-18T18:27:33;-2.58;81.68
67093;SHT31;54011;50.772;7.730;2022-12-18T18:29:59;-2.55;81.58
67093;SHT31;54011;50.772;7.730;2022-12-18T18:32:24;-2.54;81.40
67093;SHT31;54011;50.772;7.730;2022-12-18T18:34:49;-2.51;81.72
67093;SHT31;54011;50.772;7.730;2022-12-18T18:37:15;-2.47;81.60
67093;SHT31;54011;50.772;7.730;2022-12-18T18:39:40;-2.48;81.41
67093;SHT31;54011;50.772;7.730;2022-12-18T18:42:06;-2.44;81.54
67093;SHT31;54011;50.772;7.730;2022-12-18T18:44:36;-2.42;81.48
67093;SHT31;54011;50.772;7.730;2022-12-18T18:53:53;-2.33;81.51
67093;SHT31;54011;50.772;7.730;2022-12-18T18:56:20;-2.34;81.70
67093;SHT31;54011;50.772;7.730;2022-12-18T18:58:46;-2.30;81.54
67093;SHT31;54011;50.772;7.730;2022-12-18T19:01:16;-2.24;81.63
67093;SHT31;54011;50.772;7.730;2022-12-18T19:03:43;-2.20;81.46
67093;SHT31;54011;50.772;7.730;2022-12-18T19:06:15;-2.15;81.82
67093;SHT31;54011;50.772;7.730;2022-12-18T19:08:41;-2.14;81.21
67093;SHT31;54011;50.772;7.730;2022-12-18T19:11:07;-2.14;81.60
67093;SHT31;54011;50.772;7.730;2022-12-18T19:13:52;-2.14;81.34